Latest Coastal Weather Observations for Whyalla

IDS60701

Issued at 5:45 am CST Thursday 24 July 2014 (issued every 10 minutes, with the page automatically refreshed every 10 minutes)

About coastal observations | Map of coastal stations | Coastal observations for SA | Marine services | Other Formats
Station Details ID: 018120 Name: WHYALLA AERO Lat: -33.05 Lon: 137.52 Height: 6.5 m
Data from the previous 72 hours. | See also: Recent months at Whyalla
Date/Time
CST
Temp

°C
Wind Pressure Rain
since 9am
mm
Weather Cloud Vis
km
Sea
Height
m
Swell
Dir
 
Speed
knots
Gust
knots
hPa Trend Height
m
Period
s
Dir
24/05:30am 12.0 NNW 14 17 1007.8 - 2.0 - Cloudy 10 - - - -
24/05:00am 12.0 NNW 14 19 1007.5 - 2.0 - Partly cloudy 10 - - - -
24/04:30am 12.1 NNW 15 18 1007.1 - 2.0 - Cloudy 10 - - - -
24/04:00am 11.8 NNW 14 18 1006.9 - 2.0 - Cloudy 10 - - - -
24/03:30am 11.8 NNW 16 21 1006.7 - 2.0 - Partly cloudy 10 - - - -
24/03:00am 11.9 NNW 18 25 1006.5 - 2.0 - Mostly cloudy 10 - - - -
24/02:30am 12.4 NNW 18 25 1006.4 - 2.0 - Partly cloudy 10 - - - -
24/02:00am 12.4 N 17 22 1006.4 - 2.0 - Partly cloudy 10 - - - -
24/01:30am 12.6 N 17 25 1006.2 - 2.0 - Partly cloudy 10 - - - -
24/01:00am 12.8 N 17 25 1006.3 - 2.0 - Partly cloudy 10 - - - -
24/12:30am 12.7 NNW 17 23 1006.6 - 2.0 - Partly cloudy 10 - - - -
24/12:00am 12.4 N 17 22 1006.7 - 2.0 - Cloudy 10 - - - -
 
Date/Time
CST
Temp

°C
Wind Pressure Rain
since 9am
mm
Weather Cloud Vis
km
Sea
Height
m
Swell
Dir
 
Speed
knots
Gust
knots
hPa Trend Height
m
Period
s
Dir
23/11:30pm 12.6 N 16 23 1007.0 - 2.0 - Partly cloudy 10 - - - -
23/11:00pm 12.4 N 14 19 1007.5 - 2.0 - Cloudy 10 - - - -
23/10:30pm 12.6 N 17 23 1007.6 - 2.0 - Partly cloudy 10 - - - -
23/10:00pm 12.4 N 17 22 1007.8 - 2.0 - Partly cloudy 10 - - - -
23/09:30pm 12.3 N 17 24 1008.0 - 2.0 - Partly cloudy 10 - - - -
23/09:00pm 12.2 N 14 19 1008.4 - 2.0 - Cloudy 10 - - - -
23/08:42pm 12.7 NNW 15 27 1008.6 - 1.8 - Partly cloudy 10 - - - -
23/08:30pm 12.4 NNE 11 17 1008.1 - 1.8 - Partly cloudy 10 - - - -
23/08:00pm 11.5 NNE 10 13 1008.3 - 1.8 - Partly cloudy 10 - - - -
23/07:30pm 11.2 NE 11 16 1008.4 - 1.8 - - 10 - - - -
23/07:00pm 11.8 NNE 12 16 1008.3 - 1.8 - Partly cloudy 10 - - - -
23/06:30pm 12.3 NNE 16 20 1008.7 - 1.8 - - 10 - - - -
23/06:00pm 12.3 NNE 13 18 1008.8 - 1.8 - Cloudy 10 - - - -
23/05:30pm 12.1 NNE 14 20 1009.1 - 1.8 - Partly cloudy 10 - - - -
23/05:00pm 12.5 NNE 13 18 1009.8 - 1.6 - Partly cloudy 10 - - - -
23/04:30pm 12.3 N 10 15 1010.0 - 1.6 - Partly cloudy 10 - - - -
23/04:00pm 12.0 N 13 19 1009.9 - 1.6 - Partly cloudy 10 - - - -
23/03:30pm 13.2 N 14 18 1009.9 - 0.8 - Cloudy 10 - - - -
23/03:14pm 13.4 N 19 29 1009.8 - 0.8 - Partly cloudy 10 - - - -
23/03:00pm 15.0 N 19 27 1009.4 - 0.2 - Mostly cloudy 10 - - - -
23/02:42pm 17.3 N 19 31 1008.9 - 0.2 - Partly cloudy 10 - - - -
23/02:30pm 17.5 N 19 27 1009.0 - 0.2 - Cloudy 10 - - - -
23/02:04pm 17.0 N 16 26 1009.8 - 0.2 - Cloudy 10 - - - -
23/02:00pm 17.1 N 18 26 1009.7 - 0.2 - Cloudy 10 - - - -
23/01:38pm 17.0 N 21 27 1009.9 - 0.2 - Partly cloudy 10 - - - -
23/01:30pm 17.0 NNE 11 17 1010.2 - 0.2 - Cloudy 10 - - - -
23/01:00pm 15.6 NNE 9 15 1011.2 - 0.2 - Cloudy 10 - - - -
23/12:30pm 15.1 NNE 10 15 1012.1 - 0.2 - Cloudy 10 - - - -
23/12:00pm 15.1 NNE 10 15 1012.8 - 0.2 - Cloudy 10 - - - -
23/11:30am 13.5 ENE 12 16 1013.3 - 0.2 - Cloudy 10 - - - -
23/11:00am 13.0 NE 9 12 1014.8 - 0.2 - Cloudy 10 - - - -
23/10:30am 12.5 ENE 7 13 1015.1 - 0.0 - Cloudy 10 - - - -
23/10:00am 11.6 ENE 6 10 1015.3 - 0.0 - Cloudy 10 - - - -
23/09:30am 11.1 E 10 13 1015.3 - 0.0 - Partly cloudy 10 - - - -
23/09:00am 11.0 NE 4 5 1016.6 - 1.0 - Cloudy 10 - - - -
23/08:30am 10.4 N 4 5 1017.0 - 0.8 - Partly cloudy 8 - - - -
23/08:00am 10.9 NNW 9 13 1017.2 - 0.4 - Cloudy 10 - - - -
23/07:30am 11.5 N 4 6 1016.5 - 0.2 - Partly cloudy 10 - - - -
23/07:00am 11.1 N 3 5 1016.7 - 0.2 - Cloudy 10 - - - -
23/06:30am 11.0 NNW 6 7 1016.6 - 0.0 - Partly cloudy 10 - - - -
23/06:00am 9.8 NNW 6 7 1016.3 - 0.0 - Cloudy 10 - - - -
23/05:30am 10.4 NW 6 7 1016.4 - 0.0 - Partly cloudy 10 - - - -
23/05:00am 10.3 WNW 7 10 1016.4 - 0.0 - Partly cloudy 10 - - - -
23/04:30am 9.7 WNW 4 5 1016.3 - 0.0 - Partly cloudy 10 - - - -
23/04:00am 10.4 NNW 3 5 1016.5 - 0.0 - - 10 - - - -
23/03:30am 10.2 NW 1 5 1017.0 - 0.0 - Partly cloudy 10 - - - -
23/03:00am 9.8 NW 4 5 1017.3 - 0.0 - Cloudy 10 - - - -
23/02:30am 10.2 NW 4 5 1017.5 - 0.0 - Partly cloudy 10 - - - -
23/02:00am 11.1 N 3 5 1017.5 - 0.0 - Partly cloudy 10 - - - -
23/01:30am 11.2 NW 3 5 1018.0 - 0.0 - Partly cloudy 10 - - - -
23/01:00am 14.3 NE 5 7 1018.2 - 0.0 - Partly cloudy 10 - - - -
23/12:30am 13.9 N 5 8 1018.4 - 0.0 - Partly cloudy 10 - - - -
23/12:00am 13.1 NNE 6 8 1018.5 - 0.0 - Mostly cloudy 10 - - - -
 
Date/Time
CST
Temp

°C
Wind Pressure Rain
since 9am
mm
Weather Cloud Vis
km
Sea
Height
m
Swell
Dir
 
Speed
knots
Gust
knots
hPa Trend Height
m
Period
s
Dir
22/11:30pm 9.9 N 1 3 1019.1 - 0.0 - - 10 - - - -
22/11:00pm 11.0 N 5 5 1019.2 - 0.0 - - 10 - - - -
22/10:30pm 10.7 NNE 1 3 1019.2 - 0.0 - - 10 - - - -
22/10:00pm 12.4 NE 5 6 1019.2 - 0.0 - - 10 - - - -
22/09:30pm 11.3 ENE 5 6 1019.3 - 0.0 - - 10 - - - -
22/09:00pm 10.6 CALM 0 2 1019.3 - 0.0 - - 10 - - - -
22/08:30pm 11.7 NE 4 5 1019.5 - 0.0 - - 10 - - - -
22/08:00pm 12.6 NNE 5 6 1019.8 - 0.0 - - 10 - - - -
22/07:30pm 13.1 NE 4 6 1019.5 - 0.0 - - 10 - - - -
22/07:00pm 13.0 ENE 6 7 1019.3 - 0.0 - - 10 - - - -
22/06:30pm 14.0 NE 4 6 1019.6 - 0.0 - - 10 - - - -
22/06:00pm 15.1 NE 6 8 1019.3 - 0.0 - - 10 - - - -
22/05:30pm 14.5 E 6 7 1019.1 - 0.0 - - 10 - - - -
22/05:00pm 16.0 E 4 6 1019.1 - 0.0 - - 10 - - - -
22/04:30pm 17.2 E 5 7 1019.2 - 0.0 - - 10 - - - -
22/04:00pm 17.4 E 7 9 1019.0 - 0.0 - - 10 - - - -
22/03:30pm 18.3 E 8 10 1019.2 - 0.0 - - 10 - - - -
22/03:00pm 18.1 E 8 11 1019.5 - 0.0 - - 10 - - - -
22/02:30pm 17.6 E 9 11 1019.7 - 0.0 - - 10 - - - -
22/02:00pm 17.3 E 9 12 1019.3 - 0.0 - - 10 - - - -
22/01:30pm 16.4 E 9 12 1020.2 - 0.0 - - 10 - - - -
22/01:00pm 16.9 ESE 8 10 1021.1 - 0.0 - - 10 - - - -
22/12:30pm 16.4 E 8 9 1021.8 - 0.0 - - 10 - - - -
22/12:00pm 15.8 E 7 9 1022.0 - 0.0 - - 10 - - - -
22/11:30am 16.5 E 5 8 1022.5 - 0.0 - - 10 - - - -
22/11:00am 15.8 E 4 6 1022.9 - 0.0 - - 10 - - - -
22/10:30am 15.9 NNE 3 5 1023.2 - 0.0 - - 10 - - - -
22/10:00am 14.9 CALM 0 0 1023.4 - 0.0 - - 10 - - - -
22/09:30am 12.3 CALM 0 2 1023.5 - 0.0 - - 10 - - - -
22/09:00am 9.4 NW 3 4 1023.2 - 0.0 - - 10 - - - -
22/08:30am 6.0 NNW 3 5 1023.2 - 0.0 - - 10 - - - -
22/08:00am 3.4 NW 4 5 1022.9 - 0.0 - - 10 - - - -
22/07:30am 1.9 NW 5 6 1022.7 - 0.0 - - 10 - - - -
22/07:00am 2.0 NNW 5 6 1022.4 - 0.0 - - 10 - - - -
22/06:30am 1.9 NNW 6 7 1022.2 - 0.0 - - 10 - - - -
22/06:00am 2.2 NNW 6 7 1021.9 - 0.0 - - 10 - - - -
22/05:30am 2.2 NW 5 5 1021.7 - 0.0 - - 10 - - - -
22/05:00am 2.5 NW 5 6 1021.7 - 0.0 - - 10 - - - -
22/04:30am 3.2 NW 5 6 1021.7 - 0.0 - - 10 - - - -
22/04:00am 4.3 NNW 4 5 1021.5 - 0.0 - - 10 - - - -
22/03:30am 4.4 NNW 5 6 1021.4 - 0.0 - - 10 - - - -
22/03:00am 5.2 NNW 5 6 1021.4 - 0.0 - - 10 - - - -
22/02:30am 6.2 NNW 5 5 1021.5 - 0.0 - Partly cloudy 10 - - - -
22/02:00am 6.4 N 3 4 1021.7 - 0.0 - Cloudy 10 - - - -
22/01:30am 5.8 NW 3 4 1021.9 - 0.0 - Cloudy 10 - - - -
22/01:00am 5.3 NNW 4 5 1022.0 - 0.0 - Cloudy 10 - - - -
22/12:30am 5.3 NNW 4 4 1022.1 - 0.0 - - 10 - - - -
22/12:00am 5.1 NNW 7 7 1022.1 - 0.0 - - 10 - - - -
 
Date/Time
CST
Temp

°C
Wind Pressure Rain
since 9am
mm
Weather Cloud Vis
km
Sea
Height
m
Swell
Dir
 
Speed
knots
Gust
knots
hPa Trend Height
m
Period
s
Dir
21/11:30pm 6.5 NNW 4 5 1022.2 - 0.0 - Partly cloudy 10 - - - -
21/11:00pm 7.8 N 4 5 1022.3 - 0.0 - Cloudy 10 - - - -
21/10:30pm 8.1 WNW 4 5 1022.2 - 0.0 - Cloudy 10 - - - -
21/10:00pm 7.6 NW 4 6 1022.1 - 0.0 - Cloudy 10 - - - -
21/09:30pm 7.5 NW 5 5 1022.1 - 0.0 - Cloudy 10 - - - -
21/09:00pm 7.3 NNW 6 7 1021.9 - 0.0 - Mostly clear 10 - - - -
21/08:30pm 8.7 NNW 3 4 1021.9 - 0.0 - - 10 - - - -
21/08:00pm 10.1 NW 4 5 1021.8 - 0.0 - Partly cloudy 10 - - - -
21/07:30pm 11.7 NNW 3 4 1021.5 - 0.0 - - 10 - - - -
21/07:00pm 12.4 NNE 3 4 1021.1 - 0.0 - - 10 - - - -
21/06:30pm 12.9 E 5 7 1020.6 - 0.0 - - 10 - - - -
21/06:00pm 13.3 E 6 7 1020.1 - 0.0 - - 10 - - - -
21/05:30pm 14.7 E 5 6 1019.9 - 0.0 - - 10 - - - -
21/05:00pm 16.0 N 6 8 1019.9 - 0.0 - - 10 - - - -
21/04:30pm 16.8 NNW 10 12 1019.9 - 0.0 - - 10 - - - -
21/04:00pm 17.0 NNW 6 9 1019.7 - 0.0 - - 10 - - - -
21/03:30pm 17.1 N 7 11 1019.8 - 0.0 - Partly cloudy 10 - - - -
21/03:00pm 16.6 NW 8 11 1019.9 - 0.0 - Mostly cloudy 10 - - - -
21/02:30pm 16.4 NNW 7 11 1020.1 - 0.0 - Cloudy 10 - - - -
21/02:00pm 16.6 NNW 10 12 1020.2 - 0.0 - Partly cloudy 10 - - - -
21/01:30pm 15.8 N 8 11 1020.2 - 0.0 - Partly cloudy 10 - - - -
21/01:00pm 16.5 N 10 14 1020.5 - 0.0 - Partly cloudy 10 - - - -
21/12:30pm 16.1 N 12 16 1020.7 - 0.0 - - 10 - - - -
21/12:00pm 16.8 N 10 14 1021.2 - 0.0 - - 10 - - - -
21/11:30am 15.8 N 12 16 1021.7 - 0.0 - - 10 - - - -
21/11:00am 15.3 N 10 15 1021.9 - 0.0 - - 10 - - - -
21/10:30am 15.1 N 9 12 1021.8 - 0.0 - Partly cloudy 10 - - - -
21/10:00am 14.2 N 6 11 1022.1 - 0.0 - - 10 - - - -
21/09:30am 11.1 NNW 5 6 1022.1 - 0.0 - Partly cloudy 10 - - - -
21/09:00am 8.4 W 4 5 1022.2 - 0.0 - Mostly cloudy 10 - - - -
21/08:30am 8.1 NW 4 7 1022.0 - 0.0 - Cloudy 10 - - - -
21/08:00am 6.5 W 6 7 1021.7 - 0.0 - Cloudy 10 - - - -
21/07:30am 4.8 WSW 5 6 1021.2 - 0.0 - Partly cloudy 10 - - - -
21/07:00am 5.3 NNW 4 5 1021.1 - 0.0 - Partly cloudy 10 - - - -
21/06:30am 4.8 W 3 4 1021.2 - 0.0 - Partly cloudy 10 - - - -
21/06:00am 4.8 WNW 2 4 1021.1 - 0.0 - - 10 - - - -

Other Formats:

Comma delimited format used in spreadsheet applications
http://www.bom.gov.au/fwo/IDS60701/IDS60701.95664.axf

JavaScript Object Notation format (JSON) in row-major order
http://www.bom.gov.au/fwo/IDS60701/IDS60701.95664.json